createdAt,value
2018-12-30T00:00:10.394Z,53.56
2018-12-30T00:02:36.415Z,53.57
2018-12-30T00:05:02.818Z,53.58
2018-12-30T00:07:29.188Z,53.58
2018-12-30T00:09:55.209Z,53.58
2018-12-30T00:12:21.226Z,53.53
2018-12-30T00:14:47.331Z,53.48
2018-12-30T00:17:13.399Z,53.38
2018-12-30T00:19:42.256Z,54.03
2018-12-30T00:22:07.272Z,53.45
2018-12-30T00:24:33.344Z,53.35
2018-12-30T00:26:59.722Z,53.27
2018-12-30T00:29:25.799Z,53.28
2018-12-30T00:31:52.078Z,53.23
2018-12-30T00:34:18.087Z,53.22
2018-12-30T00:36:44.146Z,53.41
2018-12-30T00:39:10.539Z,53.42
2018-12-30T00:41:36.692Z,53.29
2018-12-30T00:44:03.079Z,53.24
2018-12-30T00:46:29.082Z,53.36
2018-12-30T00:48:55.092Z,53.28
2018-12-30T00:51:21.115Z,53.28
2018-12-30T00:53:47.401Z,53.16
2018-12-30T00:56:13.787Z,53.23
2018-12-30T00:58:39.797Z,53.23
2018-12-30T01:01:05.898Z,53.31
2018-12-30T01:03:31.900Z,53.30
2018-12-30T01:05:57.911Z,53.25
2018-12-30T01:08:23.932Z,53.33
2018-12-30T01:10:49.982Z,53.24
2018-12-30T01:13:16.023Z,53.22
2018-12-30T01:15:42.240Z,53.25
2018-12-30T01:18:08.268Z,53.29
2018-12-30T01:20:34.291Z,53.31
2018-12-30T01:23:00.307Z,53.40
2018-12-30T01:25:26.390Z,53.31
2018-12-30T01:27:52.487Z,53.23
2018-12-30T01:30:18.555Z,53.29
2018-12-30T01:32:44.705Z,53.28
2018-12-30T01:35:10.778Z,53.34
2018-12-30T01:37:37.051Z,53.27
2018-12-30T01:40:03.085Z,53.22
2018-12-30T01:42:29.122Z,53.31
2018-12-30T01:44:55.210Z,53.27
2018-12-30T01:47:21.603Z,53.30
2018-12-30T01:49:47.676Z,53.21
2018-12-30T01:52:13.791Z,53.27
2018-12-30T01:54:39.918Z,53.23
2018-12-30T01:57:05.937Z,53.28
2018-12-30T01:59:32.019Z,53.19
2018-12-30T02:01:58.110Z,53.23
2018-12-30T02:04:24.490Z,53.17
2018-12-30T02:06:50.651Z,53.20
2018-12-30T02:09:16.881Z,53.25
2018-12-30T02:11:42.885Z,53.31
2018-12-30T02:14:08.898Z,53.32
2018-12-30T02:16:34.918Z,53.33
2018-12-30T02:19:00.960Z,53.32
2018-12-30T02:21:26.975Z,53.27
2018-12-30T02:23:53.010Z,53.29
2018-12-30T02:26:19.015Z,53.41
2018-12-30T02:28:45.038Z,53.21
2018-12-30T02:31:11.044Z,53.27
2018-12-30T02:33:37.066Z,53.32
2018-12-30T02:36:03.446Z,53.29
2018-12-30T02:38:29.515Z,53.31
2018-12-30T02:40:55.526Z,53.18
2018-12-30T02:43:21.529Z,53.27
2018-12-30T02:45:47.550Z,53.25
2018-12-30T02:48:13.559Z,53.19
2018-12-30T02:50:40.058Z,53.19
2018-12-30T02:53:06.400Z,53.24
2018-12-30T02:55:32.732Z,53.25
2018-12-30T02:57:59.068Z,53.16
2018-12-30T03:00:25.095Z,53.39
2018-12-30T03:02:51.110Z,53.39
2018-12-30T03:05:17.781Z,53.22
2018-12-30T03:07:43.889Z,53.29
2018-12-30T03:10:09.946Z,53.32
2018-12-30T03:12:36.042Z,53.31
2018-12-30T03:15:02.043Z,53.32
2018-12-30T03:17:28.063Z,53.21
2018-12-30T03:19:54.971Z,53.33
2018-12-30T03:22:20.985Z,53.22
2018-12-30T03:24:47.011Z,53.34
2018-12-30T03:27:13.018Z,53.36
2018-12-30T03:29:39.028Z,53.28
2018-12-30T03:32:05.071Z,53.24
2018-12-30T03:34:31.135Z,53.34
2018-12-30T03:36:57.173Z,53.29
2018-12-30T03:39:23.263Z,53.29
2018-12-30T03:41:49.274Z,53.18
2018-12-30T03:44:15.269Z,53.19
2018-12-30T03:46:41.283Z,53.18
2018-12-30T03:49:07.307Z,53.28
2018-12-30T03:51:33.306Z,53.27
2018-12-30T03:53:59.326Z,53.38
2018-12-30T03:56:25.368Z,53.22
2018-12-30T03:58:51.410Z,53.27
2018-12-30T04:01:18.454Z,53.16
2018-12-30T04:03:44.575Z,53.31
2018-12-30T04:06:10.604Z,53.26
2018-12-30T04:08:36.621Z,53.27
2018-12-30T04:11:02.639Z,53.27
2018-12-30T04:13:28.652Z,53.27
2018-12-30T04:15:54.725Z,53.32
2018-12-30T04:18:20.777Z,53.42
2018-12-30T04:20:46.782Z,53.21
2018-12-30T04:23:12.789Z,53.32
2018-12-30T04:25:38.818Z,53.33
2018-12-30T04:28:05.091Z,53.24
2018-12-30T04:30:31.109Z,53.17
2018-12-30T04:32:57.119Z,53.17
2018-12-30T04:35:23.144Z,53.12
2018-12-30T04:37:49.164Z,53.20
2018-12-30T04:40:15.219Z,53.29
2018-12-30T04:42:41.285Z,53.23
2018-12-30T04:45:07.286Z,53.35
2018-12-30T04:47:33.311Z,53.14
2018-12-30T04:49:59.306Z,53.31
2018-12-30T04:52:26.234Z,53.25
2018-12-30T04:54:52.289Z,53.22
2018-12-30T04:57:18.308Z,53.35
2018-12-30T04:59:44.727Z,53.26
2018-12-30T05:02:10.797Z,53.38
2018-12-30T05:04:36.821Z,53.36
2018-12-30T05:07:02.838Z,53.24
2018-12-30T05:09:28.842Z,53.15
2018-12-30T05:11:54.889Z,53.08
2018-12-30T05:14:20.888Z,53.08
2018-12-30T05:16:47.094Z,53.07
2018-12-30T05:19:13.251Z,52.99
2018-12-30T05:21:39.282Z,52.88
2018-12-30T05:24:05.289Z,52.92
2018-12-30T05:26:31.294Z,52.96
2018-12-30T05:28:57.302Z,52.89
2018-12-30T05:31:23.319Z,52.87
2018-12-30T05:33:49.329Z,52.92
2018-12-30T05:36:15.438Z,53.00
2018-12-30T05:38:41.711Z,52.90
2018-12-30T05:41:07.767Z,53.01
2018-12-30T05:43:33.789Z,53.00
2018-12-30T05:45:59.798Z,53.08
2018-12-30T05:48:25.831Z,53.01
2018-12-30T05:50:51.847Z,53.13
2018-12-30T05:53:17.870Z,53.14
2018-12-30T05:55:43.873Z,53.23
2018-12-30T05:58:09.874Z,53.14
2018-12-30T06:00:35.888Z,53.23
2018-12-30T06:03:01.878Z,53.18
2018-12-30T06:05:27.906Z,53.25
2018-12-30T06:07:53.925Z,53.17
2018-12-30T06:10:19.926Z,53.10
2018-12-30T06:12:45.928Z,53.16
2018-12-30T06:15:11.966Z,53.17
2018-12-30T06:17:37.990Z,52.99
2018-12-30T06:20:03.996Z,53.09
2018-12-30T06:22:30.335Z,53.08
2018-12-30T06:24:56.440Z,53.06
2018-12-30T06:27:22.443Z,53.05
2018-12-30T06:29:48.611Z,53.05
2018-12-30T06:32:14.675Z,53.14
2018-12-30T06:34:40.846Z,53.15
2018-12-30T06:37:07.527Z,53.09
2018-12-30T06:39:35.051Z,53.15
2018-12-30T06:42:01.030Z,53.19
2018-12-30T06:44:27.449Z,53.22
2018-12-30T06:46:53.461Z,53.17
2018-12-30T06:49:19.479Z,53.17
2018-12-30T06:51:45.547Z,53.24
2018-12-30T06:54:11.631Z,53.25
2018-12-30T06:56:37.634Z,53.15
2018-12-30T06:59:03.650Z,53.15
2018-12-30T07:01:29.708Z,53.13
2018-12-30T07:03:55.710Z,53.08
2018-12-30T07:06:21.732Z,53.06
2018-12-30T07:08:47.756Z,52.99
2018-12-30T07:11:13.803Z,53.02
2018-12-30T07:13:39.896Z,53.07
2018-12-30T07:16:06.131Z,53.06
2018-12-30T07:18:32.131Z,53.15
2018-12-30T07:20:58.139Z,53.09
2018-12-30T07:23:24.180Z,53.06
2018-12-30T07:25:52.951Z,53.12
2018-12-30T07:28:18.986Z,53.21
2018-12-30T07:30:45.002Z,53.18
2018-12-30T07:33:11.037Z,53.20
2018-12-30T07:35:37.348Z,53.21
2018-12-30T07:38:03.529Z,53.19
2018-12-30T07:40:29.716Z,53.24
2018-12-30T07:42:55.810Z,53.31
2018-12-30T07:45:21.826Z,53.21
2018-12-30T07:47:47.827Z,53.14
2018-12-30T07:50:13.835Z,53.12
2018-12-30T07:52:39.842Z,53.13
2018-12-30T07:55:05.849Z,53.07
2018-12-30T07:57:31.874Z,53.06
2018-12-30T07:59:57.878Z,52.95
2018-12-30T08:02:23.897Z,53.04
2018-12-30T08:04:49.985Z,53.02
2018-12-30T08:07:16.007Z,53.13
2018-12-30T08:09:42.047Z,53.08
2018-12-30T08:12:08.147Z,53.09
2018-12-30T08:14:34.173Z,53.23
2018-12-30T08:17:00.175Z,53.17
2018-12-30T08:19:26.183Z,53.17
2018-12-30T08:21:52.182Z,53.14
2018-12-30T08:24:18.188Z,53.20
2018-12-30T08:26:44.211Z,53.21
2018-12-30T08:29:10.247Z,53.16
2018-12-30T08:31:36.397Z,53.21
2018-12-30T08:34:02.396Z,53.18
2018-12-30T08:36:28.423Z,53.22
2018-12-30T08:38:54.494Z,53.29
2018-12-30T08:41:20.499Z,53.11
2018-12-30T08:43:46.546Z,53.04
2018-12-30T08:46:12.794Z,53.05
2018-12-30T08:48:39.150Z,53.09
2018-12-30T08:51:05.159Z,53.08
2018-12-30T08:53:31.165Z,53.06
2018-12-30T08:55:57.192Z,53.20
2018-12-30T08:58:23.210Z,53.10
2018-12-30T09:00:49.220Z,53.38
2018-12-30T09:03:15.222Z,53.05
2018-12-30T09:05:41.347Z,53.17
2018-12-30T09:08:07.418Z,53.19
2018-12-30T09:10:33.461Z,53.20
2018-12-30T09:12:59.472Z,53.18
2018-12-30T09:15:25.553Z,53.25
2018-12-30T09:17:51.587Z,53.29
2018-12-30T09:20:17.581Z,53.34
2018-12-30T09:22:43.616Z,53.35
2018-12-30T09:25:09.696Z,53.28
2018-12-30T09:27:35.791Z,53.34
2018-12-30T09:30:01.830Z,53.27
2018-12-30T09:32:27.839Z,53.30
2018-12-30T09:34:53.890Z,53.31
2018-12-30T09:37:20.149Z,53.33
2018-12-30T09:39:46.246Z,53.33
2018-12-30T09:42:12.257Z,53.37
2018-12-30T09:44:38.273Z,53.41
2018-12-30T09:47:04.324Z,53.46
2018-12-30T09:49:30.360Z,53.47
2018-12-30T09:51:56.495Z,53.49
2018-12-30T09:54:22.595Z,53.58
2018-12-30T09:56:48.638Z,53.51
2018-12-30T09:59:14.658Z,53.60
2018-12-30T10:01:40.687Z,53.70
2018-12-30T10:04:06.721Z,53.71
2018-12-30T10:06:32.750Z,53.71
2018-12-30T10:08:59.080Z,53.74
2018-12-30T10:11:25.087Z,54.08
2018-12-30T10:13:51.113Z,53.83
2018-12-30T10:16:17.122Z,53.84
2018-12-30T10:18:43.227Z,53.82
2018-12-30T10:21:09.276Z,53.80
2018-12-30T10:23:35.266Z,53.74
2018-12-30T10:26:01.315Z,53.68
2018-12-30T10:28:27.357Z,53.76
2018-12-30T10:30:53.358Z,53.71
2018-12-30T10:33:19.368Z,53.68
2018-12-30T10:35:45.735Z,53.72
2018-12-30T10:38:11.846Z,53.78
2018-12-30T10:40:37.887Z,53.72
2018-12-30T10:43:03.894Z,53.70
2018-12-30T10:45:30.259Z,53.67
2018-12-30T10:47:56.258Z,53.68
2018-12-30T10:50:22.274Z,53.76
2018-12-30T10:52:48.689Z,53.84
2018-12-30T10:55:14.811Z,53.77
2018-12-30T10:57:40.964Z,53.26
2018-12-30T11:00:07.277Z,53.53
2018-12-30T11:02:33.823Z,53.61
2018-12-30T11:04:59.854Z,53.67
2018-12-30T11:07:25.859Z,53.83
2018-12-30T11:09:51.896Z,53.99
2018-12-30T11:12:17.958Z,54.16
2018-12-30T11:14:44.042Z,54.17
2018-12-30T11:17:10.046Z,54.41
2018-12-30T11:19:36.073Z,54.51
2018-12-30T11:22:02.149Z,54.49
2018-12-30T11:24:28.154Z,54.50
2018-12-30T11:26:54.157Z,54.58
2018-12-30T11:29:20.168Z,54.66
2018-12-30T11:31:46.181Z,54.79
2018-12-30T11:34:12.246Z,54.89
2018-12-30T11:36:38.263Z,54.97
2018-12-30T11:39:04.292Z,55.26
2018-12-30T11:41:30.338Z,55.53
2018-12-30T11:43:56.387Z,55.71
2018-12-30T11:46:22.386Z,55.57
2018-12-30T11:48:48.450Z,55.50
2018-12-30T11:51:14.494Z,55.48
2018-12-30T11:53:40.609Z,55.53
2018-12-30T11:56:06.718Z,55.50
2018-12-30T11:58:32.759Z,55.55
2018-12-30T12:00:58.788Z,55.53
2018-12-30T12:03:24.799Z,55.57
2018-12-30T12:05:50.810Z,55.56
2018-12-30T12:08:16.890Z,55.61
2018-12-30T12:10:43.006Z,55.60
2018-12-30T12:13:09.029Z,55.64
2018-12-30T12:15:35.088Z,55.64
2018-12-30T12:18:01.179Z,55.69
2018-12-30T12:20:27.443Z,55.70
2018-12-30T12:22:53.814Z,55.88
2018-12-30T12:25:20.086Z,55.64
2018-12-30T12:27:46.138Z,55.69
2018-12-30T12:30:12.164Z,55.72
2018-12-30T12:32:38.188Z,55.66
2018-12-30T12:35:04.186Z,55.67
2018-12-30T12:37:30.207Z,55.71
2018-12-30T12:39:56.216Z,55.72
2018-12-30T12:42:22.307Z,55.78
2018-12-30T12:44:48.444Z,55.88
2018-12-30T12:47:14.563Z,55.90
2018-12-30T12:49:40.616Z,55.91
2018-12-30T12:52:06.634Z,55.90
2018-12-30T12:54:32.672Z,55.89
2018-12-30T12:56:58.688Z,55.91
2018-12-30T12:59:24.699Z,55.93
2018-12-30T13:01:50.767Z,55.93
2018-12-30T13:04:16.806Z,55.89
2018-12-30T13:06:42.896Z,55.86
2018-12-30T13:09:08.911Z,55.90
2018-12-30T13:11:34.926Z,55.89
2018-12-30T13:14:01.014Z,55.93
2018-12-30T13:16:27.010Z,55.94
2018-12-30T13:18:53.051Z,55.98
2018-12-30T13:21:19.063Z,56.04
2018-12-30T13:23:45.095Z,56.06
2018-12-30T13:26:11.102Z,56.07
2018-12-30T13:28:37.126Z,56.17
2018-12-30T13:31:03.157Z,56.26
2018-12-30T13:33:29.201Z,56.34
2018-12-30T13:35:55.214Z,56.51
2018-12-30T13:38:28.057Z,56.48
2018-12-30T13:40:49.082Z,56.62
2018-12-30T13:43:15.099Z,56.56
2018-12-30T13:45:41.139Z,56.44
2018-12-30T13:48:07.154Z,56.53
2018-12-30T13:50:33.178Z,56.53
2018-12-30T13:52:59.186Z,56.51
2018-12-30T13:55:25.219Z,56.46
2018-12-30T13:57:51.263Z,56.40
2018-12-30T14:00:17.330Z,56.43
2018-12-30T14:02:43.348Z,56.41
2018-12-30T14:05:09.440Z,56.42
2018-12-30T14:07:35.604Z,56.48
2018-12-30T14:10:01.702Z,56.51
2018-12-30T14:12:27.758Z,56.49
2018-12-30T14:14:53.877Z,56.52
2018-12-30T14:17:20.000Z,56.38
2018-12-30T14:19:46.375Z,56.66
2018-12-30T14:22:12.460Z,56.48
2018-12-30T14:24:38.476Z,56.58
2018-12-30T14:27:04.768Z,56.60
2018-12-30T14:29:30.792Z,56.47
2018-12-30T14:31:56.823Z,56.36
2018-12-30T14:34:22.832Z,56.37
2018-12-30T14:36:48.959Z,56.35
2018-12-30T14:39:14.947Z,56.30
2018-12-30T14:41:40.951Z,56.32
2018-12-30T14:44:07.031Z,56.37
2018-12-30T14:46:34.944Z,56.24
2018-12-30T14:49:00.963Z,56.36
2018-12-30T14:51:27.079Z,56.41
2018-12-30T14:53:53.114Z,56.42
2018-12-30T14:56:19.223Z,56.38
2018-12-30T14:58:45.251Z,56.31
2018-12-30T15:01:14.925Z,56.28
2018-12-30T15:03:39.039Z,56.43
2018-12-30T15:06:05.098Z,56.43
2018-12-30T15:08:31.107Z,56.51
2018-12-30T15:10:57.135Z,56.55
2018-12-30T15:13:23.166Z,56.46
2018-12-30T15:15:49.219Z,56.34
2018-12-30T15:18:15.329Z,56.35
2018-12-30T15:20:42.008Z,56.47
2018-12-30T15:23:08.013Z,56.36
2018-12-30T15:25:34.040Z,56.30
2018-12-30T15:28:00.155Z,56.31
2018-12-30T15:30:26.180Z,56.42
2018-12-30T15:32:52.242Z,56.37
2018-12-30T15:35:18.704Z,56.41
2018-12-30T15:37:44.739Z,56.34
2018-12-30T15:40:10.774Z,56.35
2018-12-30T15:42:36.778Z,56.38
2018-12-30T15:45:02.815Z,56.38
2018-12-30T15:47:28.901Z,56.37
2018-12-30T15:49:54.921Z,56.34
2018-12-30T15:52:20.936Z,56.38
2018-12-30T15:54:47.012Z,56.35
2018-12-30T15:57:13.381Z,56.57
2018-12-30T15:59:39.462Z,56.63
2018-12-30T16:02:05.510Z,56.66
2018-12-30T16:04:31.648Z,56.62
2018-12-30T16:06:57.690Z,56.54
2018-12-30T16:09:23.802Z,56.57
2018-12-30T16:11:49.868Z,56.48
2018-12-30T16:14:15.887Z,56.42
2018-12-30T16:16:41.898Z,56.49
2018-12-30T16:19:09.142Z,56.60
2018-12-30T16:21:35.254Z,56.44
2018-12-30T16:24:01.290Z,56.33
2018-12-30T16:26:27.450Z,56.34
2018-12-30T16:28:53.583Z,56.41
2018-12-30T16:31:27.851Z,56.31
2018-12-30T16:33:47.927Z,56.43
2018-12-30T16:36:13.955Z,56.24
2018-12-30T16:38:40.541Z,56.42
2018-12-30T16:41:06.539Z,56.58
2018-12-30T16:43:32.614Z,56.35
2018-12-30T16:45:58.628Z,56.22
2018-12-30T16:48:24.637Z,56.30
2018-12-30T16:50:50.704Z,56.24
2018-12-30T16:53:16.709Z,56.25
2018-12-30T16:55:42.733Z,56.23
2018-12-30T16:58:08.772Z,56.28
2018-12-30T17:00:34.795Z,56.21
2018-12-30T17:03:00.807Z,56.13
2018-12-30T17:05:27.220Z,56.17
2018-12-30T17:07:53.237Z,56.18
2018-12-30T17:10:19.288Z,56.25
2018-12-30T17:12:45.316Z,56.14
2018-12-30T17:15:11.378Z,56.08
2018-12-30T17:17:37.378Z,56.06
2018-12-30T17:20:03.428Z,56.13
2018-12-30T17:22:29.463Z,56.17
2018-12-30T17:24:55.463Z,56.16
2018-12-30T17:27:21.515Z,56.17
2018-12-30T17:29:47.505Z,56.18
2018-12-30T17:32:13.616Z,56.21
2018-12-30T17:34:39.643Z,56.26
2018-12-30T17:37:05.686Z,56.34
2018-12-30T17:39:31.701Z,56.25
2018-12-30T17:41:57.717Z,56.24
2018-12-30T17:44:23.756Z,56.25
2018-12-30T17:46:49.779Z,56.39
2018-12-30T17:49:15.987Z,56.36
2018-12-30T17:51:42.502Z,56.36
2018-12-30T17:54:15.029Z,56.27
2018-12-30T17:56:36.673Z,56.28
2018-12-30T17:59:02.786Z,56.32
2018-12-30T18:01:28.911Z,56.47
2018-12-30T18:03:54.964Z,56.35
2018-12-30T18:06:21.036Z,56.27
2018-12-30T18:08:47.059Z,56.25
2018-12-30T18:11:13.139Z,56.16
2018-12-30T18:13:39.170Z,56.06
2018-12-30T18:16:05.270Z,56.08
2018-12-30T18:18:31.312Z,56.07
2018-12-30T18:20:57.346Z,56.02
2018-12-30T18:23:23.357Z,55.99
2018-12-30T18:25:49.357Z,56.11
2018-12-30T18:28:15.458Z,56.03
2018-12-30T18:30:41.468Z,56.08
2018-12-30T18:33:07.499Z,56.03
2018-12-30T18:35:33.559Z,55.92
2018-12-30T18:37:59.572Z,55.94
2018-12-30T18:40:25.648Z,55.94
2018-12-30T18:42:51.865Z,55.92
2018-12-30T18:45:17.947Z,55.95
2018-12-30T18:47:43.967Z,55.82
2018-12-30T18:50:09.983Z,55.91
2018-12-30T18:52:35.995Z,55.88
2018-12-30T18:55:02.017Z,55.91
2018-12-30T18:57:28.057Z,55.97
2018-12-30T18:59:54.106Z,55.88
2018-12-30T19:02:20.141Z,55.89
2018-12-30T19:04:46.137Z,55.74
2018-12-30T19:07:12.200Z,55.85
2018-12-30T19:09:38.272Z,55.93
2018-12-30T19:12:04.281Z,55.99
2018-12-30T19:14:30.521Z,56.07
2018-12-30T19:16:56.677Z,56.03
2018-12-30T19:19:22.690Z,56.01
2018-12-30T19:21:48.725Z,55.93
2018-12-30T19:24:14.735Z,55.88
2018-12-30T19:26:40.727Z,55.80
2018-12-30T19:29:06.739Z,55.82
2018-12-30T19:31:32.758Z,55.89
2018-12-30T19:33:58.974Z,55.81
2018-12-30T19:36:25.035Z,55.82
2018-12-30T19:38:51.114Z,55.78
2018-12-30T19:41:17.116Z,55.76
2018-12-30T19:43:43.172Z,55.75
2018-12-30T19:46:09.190Z,55.78
2018-12-30T19:48:35.216Z,55.96
2018-12-30T19:51:01.227Z,56.06
2018-12-30T19:53:27.251Z,55.84
2018-12-30T19:55:53.292Z,55.61
2018-12-30T19:58:19.309Z,55.59
2018-12-30T20:00:45.332Z,55.63
2018-12-30T20:03:11.351Z,55.58
2018-12-30T20:05:37.428Z,55.60
2018-12-30T20:08:03.459Z,55.85
2018-12-30T20:10:29.520Z,55.67
2018-12-30T20:12:55.601Z,55.57
2018-12-30T20:15:21.607Z,55.55
2018-12-30T20:17:47.633Z,55.51
2018-12-30T20:20:13.695Z,55.55
2018-12-30T20:22:39.771Z,55.62
2018-12-30T20:25:05.771Z,55.64
2018-12-30T20:27:31.830Z,55.61
2018-12-30T20:29:57.901Z,55.68
2018-12-30T20:32:23.960Z,55.65
2018-12-30T20:34:49.980Z,55.96
2018-12-30T20:37:16.098Z,55.83
2018-12-30T20:39:42.132Z,55.71
2018-12-30T20:42:08.147Z,55.64
2018-12-30T20:44:35.160Z,55.66
2018-12-30T20:47:01.175Z,55.71
2018-12-30T20:49:27.188Z,55.80
2018-12-30T20:51:53.207Z,55.83
2018-12-30T20:54:19.297Z,55.81
2018-12-30T20:56:45.341Z,55.83
2018-12-30T20:59:11.364Z,55.78
2018-12-30T21:01:37.373Z,55.81
2018-12-30T21:04:03.403Z,55.82
2018-12-30T21:06:29.442Z,55.78
2018-12-30T21:08:55.483Z,55.81
2018-12-30T21:11:21.506Z,55.74
2018-12-30T21:13:47.495Z,55.81
2018-12-30T21:16:13.556Z,55.86
2018-12-30T21:18:39.730Z,55.82
2018-12-30T21:21:06.000Z,55.85
2018-12-30T21:23:32.048Z,55.83
2018-12-30T21:25:58.126Z,55.86
2018-12-30T21:28:27.025Z,55.81
2018-12-30T21:30:53.034Z,55.85
2018-12-30T21:33:19.055Z,55.91
2018-12-30T21:35:45.069Z,56.06
2018-12-30T21:38:11.181Z,56.00
2018-12-30T21:40:37.262Z,55.97
2018-12-30T21:43:03.279Z,55.92
2018-12-30T21:45:29.310Z,55.93
2018-12-30T21:47:55.357Z,55.95
2018-12-30T21:50:21.382Z,55.96
2018-12-30T21:52:47.419Z,55.90
2018-12-30T21:55:13.434Z,55.83
2018-12-30T21:57:39.433Z,55.99
2018-12-30T22:00:05.492Z,55.99
2018-12-30T22:02:31.537Z,55.92
2018-12-30T22:04:57.590Z,55.98
2018-12-30T22:07:23.612Z,55.89
2018-12-30T22:09:49.674Z,55.96
2018-12-30T22:12:16.009Z,55.98
2018-12-30T22:14:42.031Z,55.99
2018-12-30T22:17:08.088Z,56.07
2018-12-30T22:19:34.148Z,56.04
2018-12-30T22:22:00.192Z,56.07
2018-12-30T22:24:26.209Z,56.12
2018-12-30T22:26:52.222Z,56.14
2018-12-30T22:29:18.271Z,56.14
2018-12-30T22:31:44.261Z,56.12
2018-12-30T22:34:11.908Z,56.05
2018-12-30T22:36:38.077Z,56.04
2018-12-30T22:39:04.110Z,56.30
2018-12-30T22:41:30.123Z,56.52
2018-12-30T22:43:56.146Z,56.50
2018-12-30T22:46:22.202Z,56.51
2018-12-30T22:48:48.240Z,56.36
2018-12-30T22:51:14.245Z,56.50
2018-12-30T22:53:40.280Z,56.28
2018-12-30T22:56:06.282Z,56.15
2018-12-30T22:58:32.318Z,56.13
2018-12-30T23:00:58.313Z,56.27
2018-12-30T23:03:24.411Z,56.18
2018-12-30T23:05:50.538Z,56.14
2018-12-30T23:08:16.669Z,56.08
2018-12-30T23:10:42.689Z,56.14
2018-12-30T23:13:08.792Z,56.18
2018-12-30T23:15:34.808Z,56.18
2018-12-30T23:18:00.815Z,56.13
2018-12-30T23:20:26.851Z,56.13
2018-12-30T23:22:52.894Z,56.13
2018-12-30T23:25:18.904Z,56.19
2018-12-30T23:27:44.926Z,56.13
2018-12-30T23:30:11.274Z,56.09
2018-12-30T23:32:37.376Z,56.07
2018-12-30T23:35:03.485Z,56.11
2018-12-30T23:37:29.538Z,56.13
2018-12-30T23:39:55.619Z,56.05
2018-12-30T23:42:21.628Z,55.99
2018-12-30T23:44:47.703Z,56.03
2018-12-30T23:47:13.767Z,56.01
2018-12-30T23:49:39.800Z,55.97
2018-12-30T23:52:05.802Z,56.16
2018-12-30T23:54:31.838Z,55.98
2018-12-30T23:56:57.868Z,56.04
2018-12-30T23:59:23.969Z,55.98
